Time,TemperatureF,DewpointF,PressureIn,WindDirection,WindDirectionDegrees,WindSpeedMPH,WindSpeedGustMPH,Humidity,HourlyPrecipIn,Conditions,Clouds,dailyrainin,SolarRadiationWatts/m^2,SoftwareType,DateUTC
2014-03-02 00:00:00,33.0,28.0,-100.00,NNW,337,5.0,10.0,82,0.00,,,0.11,0.000000,,2014-03-02 07:00:00,
2014-03-02 00:42:00,33.0,28.0,-100.00,NNW,337,5.0,10.0,82,0.00,,,0.11,0.000000,,2014-03-02 07:42:00,
2014-03-02 00:52:00,33.0,28.0,-100.00,NNW,337,5.0,10.0,82,0.00,,,0.11,0.000000,,2014-03-02 07:52:00,
2014-03-02 01:00:00,33.0,27.0,-100.00,NNW,347,5.0,9.0,79,0.00,,,0.09,0.000000,,2014-03-02 08:00:00,
2014-03-02 01:42:00,33.0,27.0,-100.00,NNW,347,5.0,9.0,79,0.00,,,0.09,0.000000,,2014-03-02 08:42:00,
2014-03-02 01:52:00,33.0,27.0,-100.00,NNW,347,5.0,9.0,79,0.00,,,0.09,0.000000,,2014-03-02 08:52:00,
2014-03-02 02:00:00,32.0,28.0,-100.00,NNW,333,6.0,10.0,85,0.00,,,0.01,0.000000,,2014-03-02 09:00:00,
2014-03-02 02:43:00,32.0,28.0,-100.00,NNW,333,6.0,10.0,85,0.00,,,0.01,0.000000,,2014-03-02 09:43:00,
2014-03-02 02:54:00,32.0,28.0,-100.00,NNW,333,6.0,10.0,85,0.00,,,0.01,0.000000,,2014-03-02 09:54:00,
2014-03-02 03:00:00,32.0,29.0,-100.00,NNW,340,6.0,11.0,89,0.00,,,0.01,0.000000,,2014-03-02 10:00:00,
2014-03-02 03:43:00,32.0,29.0,-100.00,NNW,340,6.0,11.0,89,0.00,,,0.01,0.000000,,2014-03-02 10:43:00,
2014-03-02 03:53:00,32.0,29.0,-100.00,NNW,340,6.0,11.0,89,0.00,,,0.01,0.000000,,2014-03-02 10:53:00,
2014-03-02 04:00:00,31.0,28.0,-100.00,NNW,343,8.0,13.0,89,0.00,,,-99.99,0.000000,,2014-03-02 11:00:00,
2014-03-02 04:43:00,31.0,28.0,-100.00,NNW,343,8.0,13.0,89,0.00,,,-99.99,0.000000,,2014-03-02 11:43:00,
2014-03-02 04:52:00,31.0,28.0,-100.00,NNW,343,8.0,13.0,89,0.00,,,-99.99,0.000000,,2014-03-02 11:52:00,
2014-03-02 05:00:00,31.0,28.0,-100.00,NNW,328,7.0,14.0,87,0.00,,,0.00,0.000000,,2014-03-02 12:00:00,
2014-03-02 05:22:00,31.0,28.0,-100.00,NNW,328,7.0,14.0,87,0.00,,,0.00,0.000000,,2014-03-02 12:22:00,
2014-03-02 05:32:00,31.0,28.0,-100.00,NNW,328,7.0,14.0,87,0.00,,,0.00,0.000000,,2014-03-02 12:32:00,
2014-03-02 05:42:00,31.0,28.0,-100.00,NNW,328,7.0,14.0,87,0.00,,,0.00,0.000000,,2014-03-02 12:42:00,
2014-03-02 05:52:00,31.0,28.0,-100.00,NNW,328,7.0,14.0,87,0.00,,,0.00,0.000000,,2014-03-02 12:52:00,
2014-03-02 06:00:00,30.0,27.0,-100.00,NNW,337,7.0,15.0,88,0.00,,,0.00,0.000000,,2014-03-02 13:00:00,
2014-03-02 06:42:00,30.0,27.0,-100.00,NNW,337,7.0,15.0,88,0.00,,,0.00,0.000000,,2014-03-02 13:42:00,
2014-03-02 06:52:00,30.0,27.0,-100.00,NNW,337,7.0,15.0,88,0.00,,,0.00,0.000000,,2014-03-02 13:52:00,
2014-03-02 07:00:00,31.0,27.0,-100.00,NW,304,10.0,17.0,84,0.00,,,0.00,0.000000,,2014-03-02 14:00:00,
2014-03-02 07:42:00,31.0,27.0,-100.00,NW,304,10.0,17.0,84,0.00,,,0.00,0.000000,,2014-03-02 14:42:00,
2014-03-02 07:52:00,31.0,27.0,-100.00,NW,304,10.0,17.0,84,0.00,,,0.00,0.000000,,2014-03-02 14:52:00,
2014-03-02 08:00:00,32.0,28.0,-100.00,NW,312,9.0,15.0,86,0.00,,,0.00,14.000000,,2014-03-02 15:00:00,
2014-03-02 08:43:00,32.0,28.0,-100.00,NW,312,9.0,15.0,86,0.00,,,0.00,14.000000,,2014-03-02 15:43:00,
2014-03-02 08:54:00,32.0,28.0,-100.00,NW,312,9.0,15.0,86,0.00,,,0.00,14.000000,,2014-03-02 15:54:00,
2014-03-02 09:00:00,36.0,28.0,-100.00,NW,305,9.0,16.0,72,0.00,,,0.00,201.000000,,2014-03-02 16:00:00,
2014-03-02 09:43:00,36.0,28.0,-100.00,NW,305,9.0,16.0,72,0.00,,,0.00,201.000000,,2014-03-02 16:43:00,
2014-03-02 09:53:00,36.0,28.0,-100.00,NW,305,9.0,16.0,72,0.00,,,0.00,201.000000,,2014-03-02 16:53:00,
2014-03-02 10:00:00,40.0,26.0,-100.00,WNW,290,7.0,16.0,58,0.00,,,0.00,561.000000,,2014-03-02 17:00:00,
2014-03-02 10:23:00,40.0,26.0,-100.00,WNW,290,7.0,16.0,58,0.00,,,0.00,561.000000,,2014-03-02 17:23:00,
2014-03-02 10:33:00,40.0,26.0,-100.00,WNW,290,7.0,16.0,58,0.00,,,0.00,561.000000,,2014-03-02 17:33:00,
2014-03-02 10:43:00,40.0,26.0,-100.00,WNW,290,7.0,16.0,58,0.00,,,0.00,561.000000,,2014-03-02 17:43:00,
2014-03-02 10:53:00,40.0,26.0,-100.00,WNW,290,7.0,16.0,58,0.00,,,0.00,561.000000,,2014-03-02 17:53:00,
2014-03-02 11:00:00,43.0,27.0,-100.00,NW,322,5.0,14.0,52,0.00,,,-99.99,709.000000,,2014-03-02 18:00:00,
2014-03-02 11:42:00,43.0,27.0,-100.00,NW,322,5.0,14.0,52,0.00,,,-99.99,709.000000,,2014-03-02 18:42:00,
2014-03-02 11:52:00,43.0,27.0,-100.00,NW,322,5.0,14.0,52,0.00,,,-99.99,709.000000,,2014-03-02 18:52:00,
2014-03-02 12:00:00,46.0,25.0,-100.00,WSW,256,6.0,13.0,43,0.00,,,0.00,628.000000,,2014-03-02 19:00:00,
2014-03-02 12:42:00,46.0,25.0,-100.00,WSW,256,6.0,13.0,43,0.00,,,0.00,628.000000,,2014-03-02 19:42:00,
2014-03-02 12:52:00,46.0,25.0,-100.00,WSW,256,6.0,13.0,43,0.00,,,0.00,628.000000,,2014-03-02 19:52:00,
2014-03-02 13:00:00,48.0,25.0,-100.00,WSW,243,8.0,16.0,40,0.00,,,0.00,988.000000,,2014-03-02 20:00:00,
2014-03-02 13:42:00,48.0,25.0,-100.00,WSW,243,8.0,16.0,40,0.00,,,0.00,988.000000,,2014-03-02 20:42:00,
2014-03-02 13:52:00,48.0,25.0,-100.00,WSW,243,8.0,16.0,40,0.00,,,0.00,988.000000,,2014-03-02 20:52:00,
2014-03-02 14:00:00,47.0,25.0,-100.00,WNW,282,7.0,16.0,42,0.00,,,0.00,742.000000,,2014-03-02 21:00:00,
2014-03-02 14:43:00,47.0,25.0,-100.00,WNW,282,7.0,16.0,42,0.00,,,0.00,742.000000,,2014-03-02 21:43:00,
2014-03-02 14:53:00,47.0,25.0,-100.00,WNW,282,7.0,16.0,42,0.00,,,0.00,742.000000,,2014-03-02 21:53:00,
2014-03-02 15:00:00,49.0,25.0,-100.00,WSW,255,8.0,16.0,38,0.00,,,0.00,818.000000,,2014-03-02 22:00:00,
2014-03-02 15:43:00,49.0,25.0,-100.00,WSW,255,8.0,16.0,38,0.00,,,0.00,818.000000,,2014-03-02 22:43:00,
2014-03-02 15:53:00,49.0,25.0,-100.00,WSW,255,8.0,16.0,38,0.00,,,0.00,818.000000,,2014-03-02 22:53:00,
2014-03-02 16:00:00,47.0,23.0,-100.00,West,264,5.0,13.0,39,0.00,,,0.00,527.000000,,2014-03-02 23:00:00,
2014-03-02 16:42:00,47.0,23.0,-100.00,West,264,5.0,13.0,39,0.00,,,0.00,527.000000,,2014-03-02 23:42:00,
2014-03-02 16:53:00,47.0,23.0,-100.00,West,264,5.0,13.0,39,0.00,,,0.00,527.000000,,2014-03-02 23:53:00,
2014-03-02 17:00:00,45.0,23.0,-100.00,WSW,256,4.0,10.0,41,0.00,,,0.00,218.000000,,2014-03-03 00:00:00,
2014-03-02 17:42:00,45.0,23.0,-100.00,WSW,256,4.0,10.0,41,0.00,,,0.00,218.000000,,2014-03-03 00:42:00,
2014-03-02 17:52:00,45.0,23.0,-100.00,WSW,256,4.0,10.0,41,0.00,,,0.00,218.000000,,2014-03-03 00:52:00,
2014-03-02 18:00:00,42.0,28.0,-100.00,WNW,289,8.0,14.0,57,0.00,,,0.00,89.000000,,2014-03-03 01:00:00,
2014-03-02 18:42:00,42.0,28.0,-100.00,WNW,289,8.0,14.0,57,0.00,,,0.00,89.000000,,2014-03-03 01:42:00,
2014-03-02 18:52:00,42.0,28.0,-100.00,WNW,289,8.0,14.0,57,0.00,,,0.00,89.000000,,2014-03-03 01:52:00,
2014-03-02 19:00:00,40.0,23.0,-100.00,WNW,287,7.0,14.0,51,0.00,,,0.00,8.000000,,2014-03-03 02:00:00,
2014-03-02 19:42:00,40.0,23.0,-100.00,WNW,287,7.0,14.0,51,0.00,,,0.00,8.000000,,2014-03-03 02:42:00,
2014-03-02 19:52:00,40.0,23.0,-100.00,WNW,287,7.0,14.0,51,0.00,,,0.00,8.000000,,2014-03-03 02:52:00,
2014-03-02 20:00:00,39.0,25.0,-100.00,WNW,283,9.0,16.0,58,0.00,,,0.00,0.000000,,2014-03-03 03:00:00,
2014-03-02 20:43:00,39.0,25.0,-100.00,WNW,283,9.0,16.0,58,0.00,,,0.00,0.000000,,2014-03-03 03:43:00,
2014-03-02 20:53:00,39.0,25.0,-100.00,WNW,283,9.0,16.0,58,0.00,,,0.00,0.000000,,2014-03-03 03:53:00,
2014-03-02 21:00:00,37.0,31.0,-100.00,NNW,333,8.0,16.0,79,0.00,,,0.00,0.000000,,2014-03-03 04:00:00,
2014-03-02 21:43:00,37.0,31.0,-100.00,NNW,333,8.0,16.0,79,0.00,,,0.00,0.000000,,2014-03-03 04:43:00,
2014-03-02 21:53:00,37.0,31.0,-100.00,NNW,333,8.0,16.0,79,0.00,,,0.00,0.000000,,2014-03-03 04:53:00,
2014-03-02 22:00:00,35.0,31.0,-100.00,NNW,340,6.0,14.0,84,0.00,,,0.00,0.000000,,2014-03-03 05:00:00,
2014-03-02 22:43:00,35.0,31.0,-100.00,NNW,340,6.0,14.0,84,0.00,,,0.00,0.000000,,2014-03-03 05:43:00,
2014-03-02 22:53:00,35.0,31.0,-100.00,NNW,340,6.0,14.0,84,0.00,,,0.00,0.000000,,2014-03-03 05:53:00,
2014-03-02 23:00:00,36.0,32.0,-100.00,NW,316,8.0,15.0,84,0.00,,,0.00,0.000000,,2014-03-03 06:00:00,
2014-03-02 23:42:00,36.0,32.0,-100.00,NW,316,8.0,15.0,84,0.00,,,0.00,0.000000,,2014-03-03 06:42:00,
2014-03-02 23:52:00,36.0,32.0,-100.00,NW,316,8.0,15.0,84,0.00,,,0.00,0.000000,,2014-03-03 06:52:00,